createdAt,value
2022-11-28T00:01:43.195Z,101607.03
2022-11-28T00:04:11.898Z,101602.03
2022-11-28T00:06:45.365Z,101603.22
2022-11-28T00:09:14.710Z,101609.28
2022-11-28T00:11:44.374Z,101599.91
2022-11-28T00:14:12.464Z,101604.72
2022-11-28T00:16:40.378Z,101613.53
2022-11-28T00:19:08.915Z,101611.31
2022-11-28T00:21:36.533Z,101614.66
2022-11-28T00:24:05.024Z,101605.81
2022-11-28T00:26:39.425Z,101607.88
2022-11-28T00:29:08.616Z,101611.22
2022-11-28T00:31:43.964Z,101614.66
2022-11-28T00:34:13.893Z,101620.06
2022-11-28T00:36:43.759Z,101620.84
2022-11-28T00:39:11.525Z,101620.78
2022-11-28T00:41:39.539Z,101617.00
2022-11-28T00:44:07.462Z,101621.19
2022-11-28T00:46:35.089Z,101621.75
2022-11-28T00:49:04.095Z,101618.97
2022-11-28T00:51:33.491Z,101611.59
2022-11-28T00:54:03.591Z,101620.00
2022-11-28T00:56:34.981Z,101611.28
2022-11-28T00:59:02.871Z,101608.47
2022-11-28T01:01:33.328Z,101610.25
2022-11-28T01:04:05.428Z,101607.88
2022-11-28T01:06:39.119Z,101611.41
2022-11-28T01:09:10.641Z,101605.66
2022-11-28T01:11:40.145Z,101609.09
2022-11-28T01:14:09.269Z,101602.31
2022-11-28T01:16:37.266Z,101599.69
2022-11-28T01:19:05.891Z,101597.31
2022-11-28T01:21:34.280Z,101594.22
2022-11-28T01:24:02.909Z,101592.75
2022-11-28T01:26:31.204Z,101589.81
2022-11-28T01:29:00.719Z,101586.06
2022-11-28T01:31:29.683Z,101577.06
2022-11-28T01:33:58.253Z,101571.06
2022-11-28T01:36:26.508Z,101569.72
2022-11-28T01:38:54.250Z,101570.69
2022-11-28T01:41:24.999Z,101560.78
2022-11-28T01:44:05.772Z,101557.88
2022-11-28T01:46:34.596Z,101552.69
2022-11-28T01:49:28.952Z,101558.91
2022-11-28T01:52:03.095Z,101552.09
2022-11-28T01:54:33.083Z,101549.16
2022-11-28T01:57:08.069Z,101547.75
2022-11-28T01:59:40.687Z,101548.19
2022-11-28T02:02:15.670Z,101547.97
2022-11-28T02:04:44.662Z,101548.59
2022-11-28T02:07:12.982Z,101546.16
2022-11-28T02:09:42.155Z,101537.19
2022-11-28T02:12:30.730Z,101536.41
2022-11-28T02:15:17.090Z,101532.63
2022-11-28T02:18:09.786Z,101537.00
2022-11-28T02:21:02.946Z,101537.00
2022-11-28T02:24:06.292Z,101540.44
2022-11-28T02:26:33.733Z,101535.69
2022-11-28T02:29:32.781Z,101534.41
2022-11-28T02:32:22.074Z,101533.59
2022-11-28T02:35:03.395Z,101529.38
2022-11-28T02:37:44.280Z,101529.97
2022-11-28T02:40:12.450Z,101532.91
2022-11-28T02:42:50.291Z,101531.09
2022-11-28T02:45:32.094Z,101528.16
2022-11-28T02:48:04.499Z,101529.72
2022-11-28T02:50:43.406Z,101530.47
2022-11-28T02:53:16.910Z,101532.56
2022-11-28T02:55:45.062Z,101531.56
2022-11-28T02:58:13.159Z,101515.00
2022-11-28T03:00:46.281Z,101516.44
2022-11-28T03:03:33.190Z,101511.66
2022-11-28T03:06:32.536Z,101514.16
2022-11-28T03:09:27.911Z,101520.91
2022-11-28T03:12:33.169Z,101525.44
2022-11-28T03:15:07.996Z,101523.12
2022-11-28T03:18:03.519Z,101526.03
2022-11-28T03:20:55.040Z,101525.78
2022-11-28T03:23:42.798Z,101515.31
2022-11-28T03:26:18.615Z,101518.50
2022-11-28T03:28:57.801Z,101520.91
2022-11-28T03:31:41.655Z,101521.56
2022-11-28T03:34:14.311Z,101527.12
2022-11-28T03:36:48.973Z,101522.44
2022-11-28T03:39:22.427Z,101519.78
2022-11-28T03:42:03.355Z,101514.69
2022-11-28T03:44:38.401Z,101516.00
2022-11-28T03:47:07.211Z,101520.56
2022-11-28T03:49:41.792Z,101516.97
2022-11-28T03:52:20.985Z,101507.72
2022-11-28T03:55:03.853Z,101508.34
2022-11-28T03:57:59.845Z,101512.13
2022-11-28T04:00:27.707Z,101505.75
2022-11-28T04:03:07.934Z,101495.81
2022-11-28T04:05:35.572Z,101499.41
2022-11-28T04:08:09.372Z,101498.22
2022-11-28T04:10:43.092Z,101490.28
2022-11-28T04:13:22.900Z,101485.94
2022-11-28T04:16:05.193Z,101485.53
2022-11-28T04:18:51.214Z,101487.94
2022-11-28T04:21:36.986Z,101474.97
2022-11-28T04:24:12.429Z,101477.87
2022-11-28T04:26:45.294Z,101479.62
2022-11-28T04:29:18.288Z,101480.63
2022-11-28T04:31:48.935Z,101478.06
2022-11-28T04:34:20.450Z,101482.28
2022-11-28T04:36:49.880Z,101484.41
2022-11-28T04:39:26.434Z,101484.28
2022-11-28T04:42:00.299Z,101479.69
2022-11-28T04:44:33.281Z,101481.66
2022-11-28T04:47:00.976Z,101488.81
2022-11-28T04:49:30.465Z,101476.91
2022-11-28T04:52:07.170Z,101484.13
2022-11-28T04:55:02.883Z,101492.06
2022-11-28T04:57:35.097Z,101485.31
2022-11-28T05:00:17.130Z,101494.66
2022-11-28T05:02:47.103Z,101485.72
2022-11-28T05:05:24.486Z,101488.09
2022-11-28T05:07:53.252Z,101481.75
2022-11-28T05:10:21.876Z,101481.16
2022-11-28T05:12:49.381Z,101488.91
2022-11-28T05:15:19.258Z,101482.91
2022-11-28T05:17:47.464Z,101487.31
2022-11-28T05:20:15.224Z,101481.94
2022-11-28T05:22:42.988Z,101484.91
2022-11-28T05:25:10.887Z,101476.38
2022-11-28T05:27:38.462Z,101486.31
2022-11-28T05:30:07.413Z,101484.91
2022-11-28T05:32:36.498Z,101476.38
2022-11-28T05:35:05.031Z,101478.94
2022-11-28T05:37:32.890Z,101482.53
2022-11-28T05:40:00.983Z,101481.16
2022-11-28T05:42:32.501Z,101473.59
2022-11-28T05:45:00.086Z,101477.97
2022-11-28T05:47:31.270Z,101477.97
2022-11-28T05:50:00.797Z,101483.34
2022-11-28T05:52:29.871Z,101478.56
2022-11-28T05:54:57.421Z,101472.59
2022-11-28T05:57:24.940Z,101476.16
2022-11-28T05:59:56.380Z,101468.59
2022-11-28T06:02:24.057Z,101470.00
2022-11-28T06:04:52.044Z,101477.31
2022-11-28T06:07:19.995Z,101474.56
2022-11-28T06:09:47.621Z,101469.41
2022-11-28T06:12:15.470Z,101472.59
2022-11-28T06:14:43.022Z,101474.56
2022-11-28T06:17:10.617Z,101473.78
2022-11-28T06:19:39.214Z,101477.56
2022-11-28T06:22:06.808Z,101469.97
2022-11-28T06:24:34.325Z,101480.91
2022-11-28T06:27:02.200Z,101476.44
2022-11-28T06:29:29.733Z,101479.31
2022-11-28T06:31:57.380Z,101481.53
2022-11-28T06:34:25.459Z,101469.97
2022-11-28T06:36:53.324Z,101482.50
2022-11-28T06:39:20.895Z,101487.06
2022-11-28T06:41:49.482Z,101484.87
2022-11-28T06:44:17.753Z,101488.06
2022-11-28T06:46:45.297Z,101484.47
2022-11-28T06:49:13.772Z,101479.25
2022-11-28T06:51:42.851Z,101472.78
2022-11-28T06:54:10.526Z,101482.31
2022-11-28T06:56:40.232Z,101466.38
2022-11-28T06:59:08.166Z,101463.03
2022-11-28T07:01:35.780Z,101471.00
2022-11-28T07:04:03.744Z,101468.97
2022-11-28T07:06:31.445Z,101468.19
2022-11-28T07:08:59.400Z,101471.75
2022-11-28T07:11:30.198Z,101468.97
2022-11-28T07:14:00.737Z,101468.78
2022-11-28T07:16:33.161Z,101467.00
2022-11-28T07:19:01.310Z,101457.06
2022-11-28T07:21:29.802Z,101458.47
2022-11-28T07:23:59.305Z,101461.59
2022-11-28T07:26:27.052Z,101454.06
2022-11-28T07:28:57.924Z,101448.91
2022-11-28T07:31:28.039Z,101460.84
2022-11-28T07:33:55.939Z,101460.81
2022-11-28T07:36:26.915Z,101464.22
2022-11-28T07:38:57.465Z,101447.53
2022-11-28T07:41:27.344Z,101465.75
2022-11-28T07:44:00.803Z,101460.94
2022-11-28T07:46:30.306Z,101462.03
2022-11-28T07:48:57.961Z,101459.63
2022-11-28T07:51:28.745Z,101461.03
2022-11-28T07:53:56.834Z,101460.25
2022-11-28T07:56:56.733Z,101461.84
2022-11-28T07:59:18.378Z,101468.22
2022-11-28T08:01:45.999Z,101470.38
2022-11-28T08:04:13.983Z,101465.22
2022-11-28T08:06:43.457Z,101466.22
2022-11-28T08:09:14.649Z,101468.22
2022-11-28T08:11:43.046Z,101468.78
2022-11-28T08:14:11.013Z,101464.84
2022-11-28T08:16:41.434Z,101466.22
2022-11-28T08:19:09.392Z,101462.81
2022-11-28T08:21:37.641Z,101465.41
2022-11-28T08:24:06.253Z,101471.75
2022-11-28T08:26:34.920Z,101470.53
2022-11-28T08:29:03.889Z,101464.78
2022-11-28T08:31:35.199Z,101469.75
2022-11-28T08:34:06.550Z,101472.41
2022-11-28T08:36:34.203Z,101470.16
2022-11-28T08:39:22.801Z,101474.75
2022-11-28T08:41:50.925Z,101475.28
2022-11-28T08:44:18.689Z,101481.81
2022-11-28T08:46:46.275Z,101479.03
2022-11-28T08:49:14.210Z,101481.19
2022-11-28T08:51:41.947Z,101473.41
2022-11-28T08:54:09.803Z,101467.59
2022-11-28T08:56:37.666Z,101466.63
2022-11-28T08:59:05.222Z,101469.25
2022-11-28T09:01:33.056Z,101477.72
2022-11-28T09:04:01.181Z,101468.47
2022-11-28T09:06:28.884Z,101477.16
2022-11-28T09:08:56.495Z,101476.88
2022-11-28T09:11:24.716Z,101471.75
2022-11-28T09:13:52.374Z,101470.69
2022-11-28T09:16:19.989Z,101466.75
2022-11-28T09:18:48.172Z,101466.22
2022-11-28T09:21:16.059Z,101467.00
2022-11-28T09:23:45.114Z,101465.75
2022-11-28T09:26:16.894Z,101468.63
2022-11-28T09:28:44.723Z,101456.81
2022-11-28T09:31:13.895Z,101464.47
2022-11-28T09:33:42.637Z,101455.16
2022-11-28T09:36:15.776Z,101453.38
2022-11-28T09:38:43.799Z,101458.22
2022-11-28T09:41:24.197Z,101459.56
2022-11-28T09:43:55.243Z,101447.59
2022-11-28T09:46:34.473Z,101445.00
2022-11-28T09:49:11.136Z,101437.97
2022-11-28T09:52:00.485Z,101435.53
2022-11-28T09:54:45.422Z,101436.78
2022-11-28T09:57:25.679Z,101434.03
2022-11-28T10:00:22.814Z,101433.44
2022-11-28T10:03:22.122Z,101432.56
2022-11-28T10:06:03.441Z,101436.25
2022-11-28T10:09:00.978Z,101436.13
2022-11-28T10:11:37.539Z,101430.91
2022-11-28T10:14:23.314Z,101433.25
2022-11-28T10:17:02.948Z,101428.03
2022-11-28T10:19:58.708Z,101422.84
2022-11-28T10:22:35.837Z,101424.06
2022-11-28T10:25:12.583Z,101424.00
2022-11-28T10:27:41.215Z,101422.75
2022-11-28T10:30:23.234Z,101420.66
2022-11-28T10:33:12.234Z,101424.56
2022-11-28T10:35:48.621Z,101418.31
2022-11-28T10:38:17.603Z,101410.22
2022-11-28T10:41:12.597Z,101407.06
2022-11-28T10:43:44.200Z,101402.00
2022-11-28T10:46:42.835Z,101408.50
2022-11-28T10:49:16.521Z,101398.56
2022-11-28T10:51:57.448Z,101401.06
2022-11-28T10:54:43.054Z,101398.63
2022-11-28T10:58:09.317Z,101398.22
2022-11-28T11:00:38.215Z,101398.38
2022-11-28T11:03:13.278Z,101401.81
2022-11-28T11:05:41.369Z,101401.31
2022-11-28T11:08:29.333Z,101401.97
2022-11-28T11:11:02.982Z,101403.34
2022-11-28T11:13:33.227Z,101390.97
2022-11-28T11:16:07.618Z,101382.09
2022-11-28T11:18:37.027Z,101377.75
2022-11-28T11:21:07.235Z,101381.19
2022-11-28T11:23:38.470Z,101375.31
2022-11-28T11:26:10.337Z,101375.06
2022-11-28T11:28:42.749Z,101375.31
2022-11-28T11:31:19.208Z,101379.00
2022-11-28T11:33:48.866Z,101370.03
2022-11-28T11:36:24.964Z,101368.16
2022-11-28T11:39:16.974Z,101372.56
2022-11-28T11:42:10.633Z,101365.69
2022-11-28T11:44:38.583Z,101376.41
2022-11-28T11:47:08.712Z,101375.59
2022-11-28T11:49:37.795Z,101372.09
2022-11-28T11:52:07.055Z,101368.06
2022-11-28T11:54:34.677Z,101367.06
2022-11-28T11:57:32.397Z,101371.94
2022-11-28T12:00:07.078Z,101363.56
2022-11-28T12:02:46.155Z,101348.25
2022-11-28T12:05:16.579Z,101365.37
2022-11-28T12:08:15.325Z,101357.09
2022-11-28T12:10:50.539Z,101348.53
2022-11-28T12:13:21.447Z,101349.63
2022-11-28T12:16:30.910Z,101351.56
2022-11-28T12:19:22.617Z,101339.19
2022-11-28T12:22:06.785Z,101343.47
2022-11-28T12:24:54.559Z,101342.56
2022-11-28T12:27:52.487Z,101344.44
2022-11-28T12:30:29.592Z,101337.69
2022-11-28T12:33:12.003Z,101341.34
2022-11-28T12:35:43.434Z,101343.06
2022-11-28T12:38:31.299Z,101341.47
2022-11-28T12:41:37.177Z,101338.41
2022-11-28T12:44:54.333Z,101333.56
2022-11-28T12:47:43.163Z,101338.06
2022-11-28T12:50:20.211Z,101336.31
2022-11-28T12:53:06.230Z,101334.66
2022-11-28T12:56:20.592Z,101334.28
2022-11-28T12:59:26.165Z,101335.94
2022-11-28T13:02:18.971Z,101336.31
2022-11-28T13:05:03.428Z,101333.44
2022-11-28T13:07:43.074Z,101330.59
2022-11-28T13:10:39.132Z,101343.78
2022-11-28T13:13:20.793Z,101331.94
2022-11-28T13:19:03.381Z,101339.44
2022-11-28T13:21:45.072Z,101344.84
2022-11-28T13:24:27.934Z,101333.06
2022-11-28T13:27:24.628Z,101331.69
2022-11-28T13:30:13.431Z,101335.56
2022-11-28T13:32:57.747Z,101335.41
2022-11-28T13:35:28.763Z,101345.00
2022-11-28T13:41:28.799Z,101348.13
2022-11-28T13:44:07.795Z,101345.91
2022-11-28T13:46:35.901Z,101349.13
2022-11-28T13:49:21.561Z,101348.41
2022-11-28T13:52:18.084Z,101348.53
2022-11-28T13:54:53.820Z,101342.97
2022-11-28T13:57:21.851Z,101349.13
2022-11-28T13:59:54.833Z,101343.00
2022-11-28T14:02:41.933Z,101346.53
2022-11-28T14:05:28.394Z,101347.03
2022-11-28T14:07:57.331Z,101345.06
2022-11-28T14:10:48.360Z,101348.31
2022-11-28T14:13:26.628Z,101346.41
2022-11-28T14:16:12.758Z,101348.69
2022-11-28T14:19:09.620Z,101351.06
2022-11-28T14:22:02.062Z,101347.84
2022-11-28T14:24:51.414Z,101337.91
2022-11-28T14:27:36.408Z,101343.94
2022-11-28T14:30:07.625Z,101344.53
2022-11-28T14:32:39.062Z,101341.81
2022-11-28T14:35:16.228Z,101345.06
2022-11-28T14:37:53.089Z,101344.22
2022-11-28T14:40:58.501Z,101347.34
2022-11-28T14:43:35.391Z,101350.72
2022-11-28T14:46:26.731Z,101357.38
2022-11-28T14:48:58.046Z,101360.41
2022-11-28T14:51:44.307Z,101346.34
2022-11-28T14:54:22.212Z,101352.13
2022-11-28T14:56:58.326Z,101344.03
2022-11-28T14:59:34.489Z,101344.50
2022-11-28T15:02:10.947Z,101345.37
2022-11-28T15:05:00.650Z,101343.66
2022-11-28T15:07:47.182Z,101345.75
2022-11-28T15:10:26.334Z,101350.44
2022-11-28T15:13:27.063Z,101347.25
2022-11-28T15:15:58.092Z,101347.19
2022-11-28T15:18:26.857Z,101350.78
2022-11-28T15:21:04.423Z,101353.47
2022-11-28T15:23:38.548Z,101356.41
2022-11-28T15:26:06.932Z,101351.84
2022-11-28T15:28:36.142Z,101351.31
2022-11-28T15:31:05.858Z,101350.09
2022-11-28T15:33:34.243Z,101344.59
2022-11-28T15:36:17.034Z,101356.06
2022-11-28T15:38:44.733Z,101346.31
2022-11-28T15:41:12.883Z,101354.97
2022-11-28T15:43:45.567Z,101354.12
2022-11-28T15:46:20.443Z,101356.34
2022-11-28T15:48:52.868Z,101356.94
2022-11-28T15:51:24.521Z,101361.50
2022-11-28T15:53:52.321Z,101358.06
2022-11-28T15:56:20.302Z,101360.41
2022-11-28T15:58:48.997Z,101360.41
2022-11-28T16:01:19.875Z,101356.13
2022-11-28T16:03:53.733Z,101359.37
2022-11-28T16:06:23.281Z,101355.00
2022-11-28T16:09:04.109Z,101360.09
2022-11-28T16:11:33.061Z,101361.97
2022-11-28T16:14:09.254Z,101364.72
2022-11-28T16:16:39.111Z,101355.19
2022-11-28T16:19:20.868Z,101357.72
2022-11-28T16:21:53.192Z,101363.78
2022-11-28T16:24:35.460Z,101360.59
2022-11-28T16:27:06.188Z,101362.47
2022-11-28T16:29:36.162Z,101355.59
2022-11-28T16:32:08.394Z,101354.91
2022-11-28T16:34:50.636Z,101358.72
2022-11-28T16:37:25.647Z,101360.81
2022-11-28T16:40:14.929Z,101353.47
2022-11-28T16:42:43.118Z,101363.34
2022-11-28T16:45:22.080Z,101359.37
2022-11-28T16:48:07.305Z,101361.47
2022-11-28T16:50:36.927Z,101365.00
2022-11-28T16:53:05.513Z,101363.28
2022-11-28T16:55:33.790Z,101367.81
2022-11-28T16:58:10.401Z,101369.69
2022-11-28T17:00:40.853Z,101366.00
2022-11-28T17:03:41.428Z,101371.28
2022-11-28T17:06:34.345Z,101374.09
2022-11-28T17:09:07.880Z,101371.94
2022-11-28T17:11:38.724Z,101375.75
2022-11-28T17:14:13.294Z,101374.69
2022-11-28T17:16:42.776Z,101377.91
2022-11-28T17:19:11.376Z,101379.37
2022-11-28T17:22:05.005Z,101377.97
2022-11-28T17:24:36.464Z,101371.78
2022-11-28T17:27:07.614Z,101378.12
2022-11-28T17:29:36.031Z,101374.41
2022-11-28T17:32:04.045Z,101372.28
2022-11-28T17:34:34.495Z,101371.06
2022-11-28T17:37:03.095Z,101368.47
2022-11-28T17:39:31.297Z,101375.31
2022-11-28T17:41:59.220Z,101372.41
2022-11-28T17:44:37.624Z,101369.19
2022-11-28T17:47:06.410Z,101378.47
2022-11-28T17:49:35.096Z,101370.06
2022-11-28T17:52:04.303Z,101368.34
2022-11-28T17:54:32.612Z,101368.94
2022-11-28T17:57:01.668Z,101367.66
2022-11-28T17:59:29.361Z,101366.44
2022-11-28T18:01:57.566Z,101367.97
2022-11-28T18:04:26.271Z,101368.03
2022-11-28T18:06:54.856Z,101362.03
2022-11-28T18:09:22.814Z,101358.34
2022-11-28T18:11:51.732Z,101361.59
2022-11-28T18:14:20.046Z,101360.81
2022-11-28T18:16:48.172Z,101370.47
2022-11-28T18:19:19.594Z,101368.59
2022-11-28T18:21:48.108Z,101362.19
2022-11-28T18:24:16.178Z,101361.53
2022-11-28T18:26:44.030Z,101358.34
2022-11-28T18:29:12.055Z,101351.66
2022-11-28T18:31:40.341Z,101347.91
2022-11-28T18:34:09.566Z,101354.41
2022-11-28T18:36:39.070Z,101351.28
2022-11-28T18:39:11.391Z,101354.56
2022-11-28T18:41:42.871Z,101348.53
2022-11-28T18:44:11.334Z,101357.09
2022-11-28T18:46:39.794Z,101348.63
2022-11-28T18:49:08.374Z,101349.16
2022-11-28T18:51:36.963Z,101350.88
2022-11-28T18:54:05.667Z,101343.94
2022-11-28T18:56:34.070Z,101347.91
2022-11-28T18:59:02.354Z,101340.59
2022-11-28T19:01:33.051Z,101341.50
2022-11-28T19:04:10.208Z,101348.22
2022-11-28T19:06:44.000Z,101340.25
2022-11-28T19:09:15.866Z,101348.75
2022-11-28T19:11:45.242Z,101346.88
2022-11-28T19:14:18.433Z,101343.34
2022-11-28T19:16:50.314Z,101344.34
2022-11-28T19:19:18.553Z,101347.59
2022-11-28T19:21:47.025Z,101351.56
2022-11-28T19:24:14.894Z,101344.53
2022-11-28T19:26:42.916Z,101341.28
2022-11-28T19:29:11.461Z,101342.31
2022-11-28T19:31:41.275Z,101342.31
2022-11-28T19:34:15.827Z,101336.03
2022-11-28T19:36:47.461Z,101343.94
2022-11-28T19:39:18.316Z,101347.09
2022-11-28T19:41:46.812Z,101345.16
2022-11-28T19:44:18.006Z,101348.38
2022-11-28T19:46:47.945Z,101348.69
2022-11-28T19:49:19.485Z,101347.97
2022-11-28T19:51:49.581Z,101347.34
2022-11-28T19:54:20.520Z,101346.63
2022-11-28T19:56:49.358Z,101347.66
2022-11-28T19:59:18.435Z,101360.19
2022-11-28T20:01:49.846Z,101346.22
2022-11-28T20:04:19.361Z,101352.88
2022-11-28T20:06:47.451Z,101347.84
2022-11-28T20:09:15.824Z,101343.59
2022-11-28T20:11:45.701Z,101348.69
2022-11-28T20:14:17.521Z,101345.69
2022-11-28T20:16:46.090Z,101354.19
2022-11-28T20:19:23.160Z,101341.91
2022-11-28T20:21:51.082Z,101349.53
2022-11-28T20:24:20.871Z,101351.47
2022-11-28T20:26:50.577Z,101346.03
2022-11-28T20:29:20.859Z,101352.47
2022-11-28T20:31:50.429Z,101350.66
2022-11-28T20:34:19.012Z,101355.22
2022-11-28T20:36:52.121Z,101350.66
2022-11-28T20:39:20.809Z,101346.88
2022-11-28T20:41:48.724Z,101351.72
2022-11-28T20:44:18.805Z,101351.87
2022-11-28T20:46:47.212Z,101340.66
2022-11-28T20:49:16.311Z,101349.28
2022-11-28T20:51:44.277Z,101349.69
2022-11-28T20:54:13.523Z,101344.75
2022-11-28T20:57:12.764Z,101354.53
2022-11-28T20:59:31.499Z,101346.50
2022-11-28T21:01:59.111Z,101348.06
2022-11-28T21:04:27.029Z,101347.91
2022-11-28T21:06:54.916Z,101345.19
2022-11-28T21:09:22.980Z,101339.16
2022-11-28T21:11:58.414Z,101338.75
2022-11-28T21:14:28.844Z,101344.53
2022-11-28T21:16:57.992Z,101344.34
2022-11-28T21:19:26.915Z,101341.25
2022-11-28T21:21:54.749Z,101332.84
2022-11-28T21:24:22.405Z,101339.31
2022-11-28T21:26:53.830Z,101343.88
2022-11-28T21:29:23.595Z,101335.78
2022-11-28T21:31:51.738Z,101338.00
2022-11-28T21:34:19.709Z,101342.72
2022-11-28T21:36:47.958Z,101337.81
2022-11-28T21:39:18.928Z,101343.53
2022-11-28T21:41:46.858Z,101335.72
2022-11-28T21:44:14.434Z,101338.28
2022-11-28T21:46:42.241Z,101345.56
2022-11-28T21:49:10.108Z,101343.22
2022-11-28T21:51:38.268Z,101339.19
2022-11-28T21:54:06.628Z,101339.56
2022-11-28T21:56:35.709Z,101327.25
2022-11-28T21:59:05.910Z,101331.22
2022-11-28T22:01:34.188Z,101331.78
2022-11-28T22:04:03.118Z,101327.59
2022-11-28T22:06:32.225Z,101325.91
2022-11-28T22:09:08.686Z,101328.22
2022-11-28T22:11:39.112Z,101337.59
2022-11-28T22:14:06.778Z,101331.87
2022-11-28T22:16:34.520Z,101335.16
2022-11-28T22:19:04.103Z,101332.75
2022-11-28T22:24:20.405Z,101327.91
2022-11-28T22:26:49.142Z,101326.94
2022-11-28T22:29:16.794Z,101331.59
2022-11-28T22:31:44.685Z,101321.00
2022-11-28T22:34:12.251Z,101316.66
2022-11-28T22:36:39.857Z,101315.22
2022-11-28T22:39:10.507Z,101316.94
2022-11-28T22:41:38.616Z,101319.66
2022-11-28T22:44:06.376Z,101309.03
2022-11-28T22:46:34.357Z,101313.84
2022-11-28T22:49:02.882Z,101312.06
2022-11-28T22:51:31.678Z,101315.41
2022-11-28T22:54:01.631Z,101307.47
2022-11-28T22:56:32.036Z,101308.91
2022-11-28T22:59:00.896Z,101313.88
2022-11-28T23:01:30.712Z,101307.16
2022-11-28T23:03:59.306Z,101299.53
2022-11-28T23:06:30.339Z,101304.16
2022-11-28T23:08:59.962Z,101301.59
2022-11-28T23:11:32.780Z,101293.97
2022-11-28T23:14:01.633Z,101295.91
2022-11-28T23:16:32.671Z,101300.50
2022-11-28T23:19:03.822Z,101297.38
2022-11-28T23:21:35.876Z,101289.59
2022-11-28T23:24:04.628Z,101292.97
2022-11-28T23:26:34.575Z,101295.91
2022-11-28T23:29:04.765Z,101299.41
2022-11-28T23:31:37.141Z,101297.94
2022-11-28T23:34:06.092Z,101299.91
2022-11-28T23:36:42.541Z,101300.81
2022-11-28T23:39:19.647Z,101296.84
2022-11-28T23:41:48.228Z,101293.28
2022-11-28T23:44:17.916Z,101296.75
2022-11-28T23:46:46.320Z,101298.34
2022-11-28T23:49:14.476Z,101292.16
2022-11-28T23:51:42.366Z,101298.84
2022-11-28T23:54:11.884Z,101300.38
2022-11-28T23:56:41.723Z,101292.97
2022-11-28T23:59:11.561Z,101301.63
